Terminal Aerodrome Forecast
Issued by NWS

Home | Current Version | Previous Version | Text Only | Print | Product List | Glossary On
Versions: 1 2 3 4 5 6 7 8 9 10 11 12 13 14 15 16 17 18 19 20 21 22 23 24 25 26 27 28 29 30 31 32 33 34 35 36
000
FTUS42 KILM 262300
TAFCRE
TAF
KCRE 262322Z 2700/2724 29004KT P6SM SCT015 BKN025
     FM270200 VRB03KT P6SM FEW050
      TEMPO 2705/2709 4SM BR
     FM270900 24007KT P6SM SCT080
     FM271400 29012G20KT P6SM SCT040=

USA.gov is the U.S. government's official web portal to all federal, state and local government web resources and services.